North Dighton, MA

41° 51' 30"N, 71° 08' 44"W, Elevation 95 ft.
Eastern Time

Hourly observations for the last 72 hours

Date Time Temperature (°F) Humi-
dity

(%)
Wind
(mph)
Pressure Rain (in) Sun
(W/m2)
UV ET
(in)
Air Dew 6 Hour 1 Hr 3 Hr 6 Hr Day
Alt
(in)
Sea
Level

(mb)
Max Min
2 07:00 25.1 22.6 27.3 24.0 90 W 2 G 4 30.50 1032.9 0.00 5 0.0 0.000
2 06:00 24.2 21.7 90 W 1 G 2 30.47 1032.0 0.00 0 0.0 0.000
2 05:00 24.6 22.1 90 W 1 G 3 30.46 1031.4 0.00 0 0.0 0.000
2 04:00 25.0 22.5 90 W 1 G 5 30.43 1030.5 0.00 0 0.0 0.000
2 03:00 26.0 22.9 88 W 2 G 4 30.42 1030.1 0.00 0 0.0 0.000
2 02:00 27.2 23.8 87 W 2 G 5 30.39 1029.2 0.00 0 0.0 0.000
2 01:00 26.5 23.2 37.3 26.4 87 W 1 G 4 30.38 1028.8 0.00 0 0.0 0.000
2 00:00 27.0 23.4 86 SSW 2 G 3 30.36 1028.2 0.00 0 0.0 0.078
1 23:00 28.1 23.6 83 WSW 2 G 3 30.34 1027.5 0.00 0 0.0 0.078
1 22:00 32.3 24.6 73 W 2 G 3 30.34 1027.4 0.00 0 0.0 0.078
1 21:00 35.0 24.8 66 WNW 3 G 7 30.32 1026.9 0.00 0 0.0 0.077
1 20:00 36.8 24.6 61 WNW 6 G 20 30.30 1026.1 0.00 0 0.0 0.076
1 19:00 37.3 23.9 42.1 37.3 58 NW 2 G 12 30.28 1025.3 0.00 0 0.0 0.075
1 18:00 38.4 23.6 55 WNW 9 G 17 30.25 1024.2 0.00 0 0.0 0.073
1 17:00 39.1 23.0 52 NW 12 G 25 30.22 1023.4 0.00 0 0.0 0.071
1 16:00 40.2 21.6 47 NNW 12 G 28 30.17 1021.6 0.00 16 0.0 0.067
1 15:00 41.2 22.0 46 NW 13 G 26 30.12 1020.0 0.00 174 0.0 0.061
1 14:00 41.6 21.8 45 WNW 11 G 21 30.09 1019.1 0.00 121 0.0 0.054
1 13:00 41.3 20.5 41.7 35.0 43 W 13 G 27 30.07 1018.4 0.00 158 0.7 0.044
1 12:00 41.3 21.6 45 NW 14 G 25 30.07 1018.2 0.00 468 1.1 0.034
1 11:00 40.6 22.9 49 W 8 G 23 30.06 1018.1 0.00 446 1.1 0.024
1 10:00 39.1 22.5 51 WNW 4 G 20 30.05 1017.7 0.00 396 0.8 0.016
1 09:00 37.6 21.1 51 WNW 12 G 22 30.02 1016.8 0.00 290 0.5 0.011
1 08:00 36.5 21.9 55 W 12 G 20 30.00 1015.9 0.00 153 0.0 0.009
1 07:00 35.1 23.0 41.8 35.1 61 W 5 G 11 29.97 1014.8 0.00 9 0.0 0.008
1 06:00 36.0 21.8 56 WNW 8 G 15 29.94 1013.8 0.00 0 0.0 0.007
1 05:00 36.6 23.6 59 W 6 G 11 29.89 1012.2 0.00 0 0.0 0.006
1 04:00 38.2 24.7 58 NW 9 G 21 29.86 1011.3 0.00 0 0.0 0.004
1 03:00 40.7 29.9 65 NNW 9 G 20 29.82 1009.8 0.00 0 0.0 0.002
1 02:00 41.7 31.2 66 NW 13 G 28 29.79 1008.7 0.00 0 0.0 0.001
1 01:00 41.8 32.4 58.6 41.7 69 WNW 10 G 19 29.73 1006.8 0.31 0.00 0 0.0 0.000
1 00:00 42.9 33.1 68 NW 9 G 21 29.71 1006.3 1.16 0 0.0 0.023
30 23:00 45.8 40.9 83 NNW 10 G 15 29.67 1004.7 1.16 0 0.0 0.022
30 22:00 48.1 44.1 86 NNW 8 G 14 29.63 1003.5 0.03 0.31 1.16 0 0.0 0.021
30 21:00 53.5 49.1 85 WNW 8 G 18 29.59 1002.2 0.04 1.13 0 0.0 0.021
30 20:00 58.0 55.7 92 WSW 10 G 21 29.58 1001.7 0.24 1.09 0 0.0 0.021
30 19:00 58.1 55.8 59.6 56.9 92 S 21 G 34 29.57 1001.5 0.28 0.63 0.84 0.85 0 0.0 0.020
30 18:00 58.2 55.9 92 S 15 G 33 29.65 1004.1 0.21 0.57 0 0.0 0.019
30 17:00 58.1 55.5 91 S 16 G 33 29.69 1005.5 0.14 0.36 0 0.0 0.018
30 16:00 57.2 54.6 91 S 16 G 29 29.74 1007.2 0.17 0.21 0.22 12 0.0 0.017
30 15:00 57.4 53.3 86 S 12 G 25 29.79 1008.9 0.04 0.05 16 0.0 0.015
30 14:00 59.5 54.0 82 S 13 G 25 29.80 1009.3 0.01 37 0.0 0.011
30 13:00 58.8 54.0 58.8 40.0 84 S 15 G 29 29.85 1010.8 0.01 0.01 0.01 114 0.5 0.007
30 12:00 56.7 53.5 89 SSE 12 G 25 29.93 1013.7 0.01 0.01 102 0.5 0.004
30 11:00 48.2 44.8 88 WSW 4 G 7 30.03 1016.9 0.00 19 0.0 0.002
30 10:00 45.9 42.3 87 ESE 2 G 4 30.08 1018.7 0.00 58 0.0 0.001
30 09:00 44.1 39.9 85 SE 1 G 4 30.13 1020.2 0.00 39 0.0 0.000
30 08:00 42.4 38.5 86 ESE 0 G 2 30.15 1021.1 0.00 16 0.0 0.000
30 07:00 40.0 36.2 40.0 34.3 86 ESE 2 G 6 30.16 1021.3 0.00 0 0.0 0.000
30 06:00 39.5 35.4 85 SE 0 G 1 30.19 1022.3 0.00 0 0.0 0.000
30 05:00 38.0 34.2 86 ESE 0 G 5 30.21 1022.9 0.00 0 0.0 0.000
30 04:00 35.6 33.0 90 SE 2 G 3 30.22 1023.5 0.00 0 0.0 0.000
30 03:00 35.0 32.1 89 SE 0 G 1 30.24 1024.1 0.00 0 0.0 0.000
30 02:00 35.0 32.1 89 Calm 30.27 1025.0 0.00 0 0.0 0.000
30 01:00 34.3 31.4 34.3 28.7 89 SE 0 G 3 30.27 1025.0 0.00 0 0.0 0.000
30 00:00 33.4 30.8 90 Calm 30.29 1025.7 0.00 0 0.0 0.033
29 23:00 32.3 30.0 91 SE 2 G 2 30.30 1026.1 0.00 0 0.0 0.033
29 22:00 31.0 29.0 92 SE 0 G 2 30.30 1026.1 0.00 0 0.0 0.033
29 21:00 28.9 26.6 91 SE 2 G 3 30.30 1026.0 0.00 0 0.0 0.033
29 20:00 29.3 26.7 90 SE 0 G 1 30.29 1025.7 0.00 0 0.0 0.033
29 19:00 30.4 27.3 43.3 30.4 88 Calm 30.29 1025.9 0.00 0 0.0 0.033
29 18:00 33.4 29.7 86 Calm 30.29 1025.7 0.00 0 0.0 0.033
29 17:00 38.6 32.7 79 ESE 0 G 2 30.28 1025.6 0.00 0 0.0 0.033
29 16:00 42.4 34.0 72 ESE 2 G 3 30.27 1025.0 0.00 14 0.0 0.032
29 15:00 42.6 33.5 70 Calm 30.25 1024.5 0.00 76 0.0 0.030
29 14:00 42.5 33.1 69 SSE 4 G 10 30.24 1024.1 0.00 116 0.5 0.026
29 13:00 42.8 33.3 42.9 24.3 69 E 3 G 4 30.25 1024.3 0.00 406 1.0 0.020
29 12:00 42.1 33.0 70 N 5 G 8 30.27 1025.1 0.00 396 1.3 0.013
29 11:00 39.5 30.9 71 NNW 1 G 7 30.28 1025.5 0.00 236 0.9 0.009
29 10:00 37.9 29.7 72 N 5 G 8 30.27 1025.0 0.00 176 0.8 0.004
29 09:00 35.0 28.8 78 NW 6 G 9 30.26 1024.7 0.00 292 0.6 0.001
29 08:00 29.9 27.3 90 N 5 G 9 30.23 1023.6 0.00 181 0.0 0.000

Data generated by WxSolution Version 1.9.1.9, Build 2022.03.27.